Aérodrome :
LOGIN :

S'inscrire | Disclaimer

   EN    FR    IT 

 










Légende :    VFR   VFR Marginal   IFR   IFR Intensif   IFR Très Intensif
Visi : 
Plafond : 
>= 8 km
>= 3000ft
5 à 8 km
1000 à 3000 ft
1500m à 5 km
500 à 1000 ft
800 à 1500m
200 à 500 ft
< 800m
< 200 ft
Symboles :   Orages  Brouillard  Fortes neiges  Fortes précipitations  Vent > 20 kt
SIGMETs :   Divers  Orages  Givrage  Turbulence  Onde Orograph.  Cendres Volcan.






- Altitude de l'aérodrome : 308 ft
- Code IATA : POZ


EPPO - Poznan-Lawica

DERNIER METAR :
  • 171630Z 24005KT CAVOK 09/01 Q1013

METARs EXPIRÉS :
  • 171600Z 22006KT CAVOK 10/01 Q1013
  • 171530Z 23006KT CAVOK 10/00 Q1014
  • 171500Z 23007KT CAVOK 10/00 Q1013
  • 171430Z 25010KT CAVOK 11/M00 Q1013
  • 171400Z 23010KT 9999 FEW040 11/01 Q1013

TAF TAF EPPO
Valide du 17 à 12h jusqu'au 18 à 12h UTC


171130Z 1712/1812 26017G27KT 9999 BKN030
BECMG 1713/1716 20006KT
BECMG 1719/1722 26015G25KT
PROB30
TEMPO 1802/1807 4000 RA BKN014
TEMPO 1807/1812 27020G40KT 4000 SHRA BKN020CB
PROB30
TEMPO 1809/1812 TSRA BKN014CB



MET'MAP, la Météo Aéronautique d'un coup d'oeil ! - Copyright ORBIFLY Décembre 2007 - Disclaimer

ORBIFLY MET'MAP TEAM :

Programmation & Développement : Alexandra Zaïnal
Sur une idée originale de : Baudouin d'Aumeries
Assistance à la programmation : Marc-Olivier Méhu
Soutien technique & logistique : Manuel Goepfert

Contact : metmap@orbifly.com




SOURCES & CREDITS :

   NOAA